Latest Weather Observations for McCluer Island

IDD60801

Issued at 3:51 pm CST Friday 3 December 2021 (issued every 10 minutes, with the page automatically refreshed every 10 minutes)

About weather observations | Map of weather stations | Latest weather observations for NT | Other Formats
Station Details ID: 014274 Name: MCCLUER ISLAND Lat: -11.05 Lon: 132.98 Height: 1.4 m
Data from the previous 72 hours. | See also: Recent months at McCluer Island
Date/Time
CST
Temp
°C
App
Temp
°C
Dew
Point
°C
Rel
Hum
%
Delta-T
°C
Wind Press
QNH
hPa
Press
MSL
hPa
Rain since
9am
mm
Dir  Spd
km/h
Gust
km/h
Spd
kts
Gust
kts
03/03:30pm 31.4 35.8 25.0 69 4.5 NE 11 15 6 8 1006.4 1006.4 0.0
03/03:00pm 31.6 36.0 25.0 68 4.7 NE 11 13 6 7 1006.9 1006.9 0.0
03/02:30pm 31.8 35.8 25.6 69 4.4 NE 15 17 8 9 1007.2 1007.2 0.0
03/02:00pm 31.5 35.5 25.1 69 4.5 NNE 13 15 7 8 1007.6 1007.6 0.0
03/01:30pm 31.8 36.5 26.1 72 4.1 NNE 13 15 7 8 1007.9 1007.9 0.0
03/01:00pm 32.3 37.4 25.6 67 4.8 N 9 13 5 7 1008.1 1008.1 0.0
03/12:30pm 32.4 36.9 25.2 66 5.1 N 11 13 6 7 1008.4 1008.4 0.0
03/12:00pm 31.8 36.3 25.2 68 4.7 N 11 15 6 8 1008.5 1008.5 0.0
03/11:30am 31.7 35.5 25.3 69 4.5 N 15 17 8 9 1009.0 1009.0 0.0
03/11:00am 31.2 35.0 25.3 71 4.2 N 15 17 8 9 1009.4 1009.4 0.0
03/10:30am 31.4 36.0 26.0 73 3.9 NNE 13 15 7 8 1009.6 1009.6 0.0
03/10:00am 31.6 36.9 25.9 72 4.1 N 9 13 5 7 1009.8 1009.8 0.0
03/09:30am 30.9 35.3 25.0 71 4.2 N 11 15 6 8 1009.8 1009.8 0.0
03/09:00am 31.0 35.9 25.8 74 3.7 N 11 13 6 7 1009.9 1009.9 0.0
03/08:30am 31.1 36.0 25.9 74 3.7 N 11 13 6 7 1009.5 1009.5 0.0
03/08:00am 30.4 35.6 25.7 76 3.3 N 9 11 5 6 1009.3 1009.3 0.0
03/07:30am 30.2 35.3 25.5 76 3.3 N 9 11 5 6 1008.9 1008.9 0.0
03/07:00am 29.9 35.4 25.6 78 3.0 NW 7 11 4 6 1008.6 1008.6 0.0
03/06:30am 29.7 34.7 25.4 78 3.0 NNW 9 11 5 6 1008.3 1008.3 0.0
03/06:00am 29.8 34.1 25.5 78 3.0 N 13 15 7 8 1008.2 1008.2 0.0
03/05:30am 30.0 34.8 26.2 80 2.7 N 13 17 7 9 1007.9 1007.9 0.0
03/05:00am 29.8 34.8 26.0 80 2.7 N 11 13 6 7 1007.6 1007.6 0.0
03/04:30am 29.7 34.9 25.7 79 2.8 N 9 11 5 6 1007.3 1007.3 0.0
03/04:00am 29.8 34.3 25.8 79 2.8 N 13 15 7 8 1007.1 1007.1 0.0
03/03:30am 29.7 33.8 25.7 79 2.8 N 15 17 8 9 1007.0 1007.0 0.0
03/03:00am 29.8 34.3 25.8 79 2.8 N 13 17 7 9 1007.1 1007.1 0.0
03/02:30am 29.6 34.2 25.4 78 3.0 NNW 11 13 6 7 1007.0 1007.0 0.0
03/02:00am 29.7 34.9 25.7 79 2.8 NNW 9 13 5 7 1007.2 1007.2 0.0
03/01:30am 29.6 33.8 25.4 78 3.0 NW 13 17 7 9 1007.3 1007.3 0.0
03/01:00am 29.6 34.0 25.1 77 3.2 NNW 11 15 6 8 1007.8 1007.8 0.0
03/12:30am 29.5 33.5 25.0 77 3.2 NNW 13 17 7 9 1008.1 1008.1 0.0
03/12:00am 29.5 34.1 25.3 78 3.0 N 11 13 6 7 1008.7 1008.7 0.0
 
Date/Time
CST
Temp
°C
App
Temp
°C
Dew
Point
°C
Rel
Hum
%
Delta-T
°C
Wind Press
QNH
hPa
Press
MSL
hPa
Rain since
9am
mm
Dir  Spd
km/h
Gust
km/h
Spd
kts
Gust
kts
02/11:30pm 29.5 34.1 25.3 78 3.0 N 11 15 6 8 1009.2 1009.2 0.0
02/11:00pm 29.4 33.6 25.4 79 2.8 N 13 15 7 8 1009.4 1009.4 0.0
02/10:30pm 29.5 32.5 25.5 79 2.8 N 20 22 11 12 1009.3 1009.3 0.0
02/10:00pm 29.5 32.4 25.9 81 2.6 N 22 26 12 14 1009.2 1009.2 0.0
02/09:30pm 29.5 32.2 26.3 83 2.3 N 24 28 13 15 1009.0 1009.0 0.0
02/09:00pm 29.6 31.5 25.6 79 2.8 N 26 30 14 16 1008.6 1008.6 0.0
02/08:30pm 29.8 32.4 26.6 83 2.3 NNE 26 30 14 16 1008.8 1008.8 0.0
02/08:00pm 29.8 32.3 27.0 85 2.0 NNE 28 32 15 17 1008.3 1008.3 0.0
02/07:30pm 29.8 31.2 26.8 84 2.2 NNE 33 41 18 22 1008.1 1008.1 0.0
02/07:00pm 31.4 34.8 26.2 74 3.7 NNE 20 24 11 13 1007.5 1007.5 0.0
02/06:30pm 31.5 35.6 26.3 74 3.7 NNE 17 20 9 11 1007.5 1007.5 0.0
02/06:00pm 31.6 35.9 26.6 75 3.6 NNE 17 19 9 10 1007.4 1007.4 0.0
02/05:30pm 31.7 36.9 26.3 73 3.9 NNE 11 13 6 7 1006.9 1006.9 0.0
02/05:00pm 31.9 37.1 25.7 69 4.4 NNE 9 11 5 6 1006.2 1006.2 0.0
02/04:30pm 32.3 37.6 26.4 71 4.2 NNW 11 13 6 7 1006.0 1006.0 0.0
02/04:00pm 33.3 38.6 25.0 61 5.9 W 6 7 3 4 1005.8 1005.8 0.0
02/03:30pm 34.0 39.2 25.1 59 6.3 WSW 7 9 4 5 1006.1 1006.1 0.0
02/03:00pm 33.7 37.8 24.6 59 6.4 WSW 11 15 6 8 1006.3 1006.3 0.0
02/02:30pm 33.9 37.8 24.8 59 6.4 WSW 13 15 7 8 1006.5 1006.5 0.0
02/02:00pm 34.2 38.0 25.3 59 6.3 WSW 15 17 8 9 1006.7 1006.7 0.0
02/01:30pm 34.3 38.9 26.0 62 6.0 WSW 13 15 7 8 1006.9 1006.9 0.0
02/01:00pm 34.4 39.1 26.1 62 6.0 WSW 13 15 7 8 1007.5 1007.5 0.0
02/12:30pm 34.6 38.6 25.1 57 6.8 WSW 13 15 7 8 1008.1 1008.1 0.0
02/12:00pm 33.6 37.7 23.9 57 6.8 SW 9 13 5 7 1008.3 1008.3 0.0
02/11:30am 34.0 36.7 22.1 49 8.1 SSW 11 13 6 7 1008.5 1008.5 0.0
02/11:00am 33.1 36.8 24.6 61 6.0 SSW 13 15 7 8 1008.7 1008.7 0.0
02/10:30am 32.7 36.4 25.2 64 5.3 S 15 20 8 11 1008.9 1008.9 0.0
02/10:00am 32.6 35.8 24.9 64 5.4 SSW 17 20 9 11 1009.0 1009.0 0.0
02/09:30am 32.6 36.5 24.9 64 5.4 S 13 17 7 9 1009.0 1009.0 0.0
02/09:00am 31.9 35.7 24.7 65 5.1 S 13 17 7 9 1008.9 1008.9 0.0
02/08:30am 31.9 35.1 25.0 67 4.9 S 17 20 9 11 1008.6 1008.6 0.0
02/08:00am 31.2 34.2 24.6 68 4.6 S 17 20 9 11 1008.4 1008.4 0.0
02/07:30am 30.6 34.3 25.2 73 3.8 S 15 19 8 10 1008.0 1008.0 0.0
02/07:00am 29.7 32.8 25.4 78 3.0 SSW 19 24 10 13 1007.5 1007.5 0.0
02/06:30am 29.4 32.9 25.4 79 2.8 SSW 17 20 9 11 1007.0 1007.0 0.0
02/06:00am 29.6 33.1 26.0 81 2.6 SSW 19 24 10 13 1006.7 1006.7 0.0
02/05:30am 29.2 34.2 23.9 73 3.7 S 4 7 2 4 1006.5 1006.5 0.0
02/05:00am 28.9 32.7 22.4 68 4.4 ENE 6 13 3 7 1006.3 1006.3 0.0
02/04:30am 30.0 33.2 24.4 72 3.9 SW 15 20 8 11 1006.3 1006.3 0.0
02/04:00am 30.0 33.2 25.5 77 3.2 SW 19 22 10 12 1006.2 1006.2 0.0
02/03:30am 29.8 33.7 26.0 80 2.7 WSW 17 20 9 11 1006.3 1006.3 0.0
02/03:00am 29.9 34.1 25.9 79 2.8 SW 15 19 8 10 1006.3 1006.3 0.0
02/02:30am 30.1 34.3 25.4 76 3.3 WSW 13 17 7 9 1006.5 1006.5 0.0
02/02:00am 30.3 34.7 25.6 76 3.3 WSW 13 17 7 9 1007.2 1007.2 0.0
02/01:30am 30.4 34.3 24.8 72 3.9 WSW 13 19 7 10 1007.5 1007.5 0.0
02/01:00am 30.6 34.3 24.5 70 4.3 W 13 17 7 9 1007.8 1007.8 0.0
02/12:30am 30.6 34.3 24.5 70 4.3 W 13 17 7 9 1008.2 1008.2 0.0
02/12:00am 30.6 34.4 24.7 71 4.1 W 13 17 7 9 1008.3 1008.3 0.0
 
Date/Time
CST
Temp
°C
App
Temp
°C
Dew
Point
°C
Rel
Hum
%
Delta-T
°C
Wind Press
QNH
hPa
Press
MSL
hPa
Rain since
9am
mm
Dir  Spd
km/h
Gust
km/h
Spd
kts
Gust
kts
01/11:30pm 30.6 33.6 24.7 71 4.1 W 17 19 9 10 1008.3 1008.3 0.0
01/11:00pm 30.6 33.6 24.7 71 4.1 WNW 17 19 9 10 1008.4 1008.4 0.0
01/10:30pm 30.5 33.9 25.3 74 3.7 W 17 20 9 11 1008.2 1008.2 0.0
01/10:00pm 30.5 33.9 25.3 74 3.7 WNW 17 19 9 10 1008.1 1008.1 0.0
01/09:30pm 30.7 34.5 25.3 73 3.8 WNW 15 20 8 11 1007.8 1007.8 0.0
01/09:00pm 30.7 34.1 24.1 68 4.6 W 13 17 7 9 1007.6 1007.6 0.0
01/08:30pm 30.8 34.6 24.0 67 4.7 WNW 11 15 6 8 1007.4 1007.4 0.0
01/08:00pm 30.8 34.8 24.4 68 4.5 NW 11 15 6 8 1007.0 1007.0 0.0
01/07:30pm 30.8 34.6 24.0 67 4.7 WNW 11 13 6 7 1006.8 1006.8 0.0
01/07:00pm 30.8 34.8 24.4 68 4.5 NW 11 13 6 7 1006.2 1006.2 0.0
01/06:30pm 31.0 35.0 24.4 68 4.6 WNW 11 15 6 8 1006.0 1006.0 0.0
01/06:00pm 31.3 34.8 24.2 66 5.0 WNW 13 17 7 9 1005.9 1005.9 0.0
01/05:30pm 31.5 35.1 24.4 66 5.0 NW 13 17 7 9 1005.4 1005.4 0.0
01/05:00pm 31.8 36.2 24.4 65 5.2 NW 9 11 5 6 1005.3 1005.3 0.0
01/04:30pm 32.4 36.3 23.6 59 6.1 NW 9 11 5 6 1004.9 1004.9 0.0
01/04:00pm 31.9 36.0 24.0 63 5.5 NW 9 11 5 6 1005.1 1005.1 0.0
01/03:30pm 31.6 36.3 25.5 70 4.3 NNW 11 13 6 7 1005.3 1005.3 0.0
01/03:00pm 31.5 35.9 24.4 66 5.0 N 9 11 5 6 1005.8 1005.8 0.0
01/02:30pm 32.0 36.6 24.1 63 5.5 NW 7 11 4 6 1006.1 1006.1 0.0
01/02:00pm 32.4 37.2 24.4 62 5.6 NW 7 9 4 5 1006.5 1006.5 0.0
01/01:30pm 33.0 37.4 24.5 61 6.0 WSW 9 13 5 7 1007.2 1007.2 0.0
01/01:00pm 32.5 37.3 25.1 65 5.2 WSW 9 13 5 7 1007.4 1007.4 0.0
01/12:30pm 31.6 36.7 25.0 68 4.7 W 7 13 4 7 1008.1 1008.1 0.0
01/12:00pm 31.5 36.7 25.1 69 4.5 W 7 9 4 5 1008.4 1008.4 0.0
01/11:30am 31.7 36.9 25.1 68 4.7 WNW 7 9 4 5 1008.5 1008.5 0.0
01/11:00am 32.5 38.0 25.6 67 4.9 NW 7 9 4 5 1008.5 1008.5 0.0
01/10:30am 32.4 37.5 25.0 65 5.2 W 7 9 4 5 1008.6 1008.6 0.0
01/10:00am 31.6 36.7 25.0 68 4.7 W 7 9 4 5 1008.7 1008.7 0.0
01/09:30am 32.2 37.4 24.8 65 5.2 WSW 6 9 3 5 1008.9 1008.9 0.0
01/09:00am 31.6 36.7 25.0 68 4.7 WSW 7 9 4 5 1009.0 1009.0 0.0
01/08:30am 31.5 36.1 24.1 65 5.2 SW 7 11 4 6 1008.8 1008.8 0.0
01/08:00am 31.5 36.4 24.4 66 5.0 NW 6 7 3 4 1008.7 1008.7 0.0
01/07:30am 31.1 36.1 24.5 68 4.6 NW 6 9 3 5 1008.2 1008.2 0.0
01/07:00am 30.1 36.5 24.9 73 3.6 CALM 0 7 0 4 1008.0 1008.0 0.0
01/06:30am 29.0 34.9 24.1 75 3.4 CALM 0 0 0 0 1007.4 1007.4 0.0
01/06:00am 29.3 35.0 24.4 75 3.4 NW 2 7 1 4 1007.3 1007.3 0.0
01/05:30am 29.0 35.0 24.3 76 3.3 CALM 0 0 0 0 1006.9 1006.9 0.0
01/05:00am 29.9 34.7 24.1 71 4.0 NW 6 7 3 4 1006.5 1006.5 0.0
01/04:30am 29.9 35.7 24.5 73 3.8 NW 2 7 1 4 1006.2 1006.2 0.0
01/04:00am 30.0 34.9 24.6 73 3.8 NW 7 9 4 5 1006.5 1006.5 0.0
01/03:30am 30.1 34.7 24.7 73 3.8 WNW 9 11 5 6 1006.3 1006.3 0.0
01/03:00am 30.0 34.4 24.4 72 3.9 NW 9 11 5 6 1006.3 1006.3 0.0
01/02:30am 30.1 34.7 24.7 73 3.8 NNW 9 11 5 6 1006.2 1006.2 0.0
01/02:00am 30.2 34.7 24.6 72 3.9 NW 9 11 5 6 1006.5 1006.5 0.0
01/01:30am 30.3 35.0 24.9 73 3.8 NW 9 11 5 6 1006.9 1006.9 0.0
01/01:00am 30.3 35.0 24.9 73 3.8 NW 9 11 5 6 1007.2 1007.2 0.0
01/12:30am 30.3 35.0 24.9 73 3.8 NW 9 13 5 7 1007.5 1007.5 0.0
01/12:00am 30.4 34.5 24.5 70 4.1 NW 11 13 6 7 1007.6 1007.6 0.0
 
Date/Time
CST
Temp
°C
App
Temp
°C
Dew
Point
°C
Rel
Hum
%
Delta-T
°C
Wind Press
QNH
hPa
Press
MSL
hPa
Rain since
9am
mm
Dir  Spd
km/h
Gust
km/h
Spd
kts
Gust
kts
30/11:30pm 30.5 34.2 24.6 70 4.1 NW 13 15 7 8 1007.5 1007.5 0.0
30/11:00pm 30.5 34.0 24.9 72 3.9 NW 15 17 8 9 1007.5 1007.5 0.0
30/10:30pm 30.6 34.0 24.7 71 4.1 NW 15 19 8 10 1007.4 1007.4 0.0
30/10:00pm 30.6 33.8 25.0 72 3.9 NW 17 20 9 11 1007.2 1007.2 0.0
30/09:30pm 30.7 33.8 24.8 71 4.1 NNW 17 20 9 11 1006.9 1006.9 0.0
30/09:00pm 30.7 34.2 24.8 71 4.1 NNW 15 19 8 10 1006.6 1006.6 0.0
30/08:30pm 30.7 34.1 24.6 70 4.3 NNW 15 19 8 10 1006.5 1006.5 0.0
30/08:00pm 30.7 34.3 24.4 69 4.4 NW 13 15 7 8 1006.3 1006.3 0.0
30/07:30pm 30.9 34.9 25.0 71 4.2 NNW 13 17 7 9 1006.0 1006.0 0.0
30/07:00pm 30.9 34.2 24.5 68 4.5 N 15 17 8 9 1005.7 1005.7 0.0
30/06:30pm 31.0 34.2 24.9 70 4.3 N 17 20 9 11 1005.3 1005.3 0.0
30/06:00pm 31.1 34.2 24.2 66 4.8 N 15 17 8 9 1005.0 1005.0 0.0
30/05:30pm 31.2 34.4 24.3 66 4.8 N 15 17 8 9 1004.8 1004.8 0.0
30/05:00pm 31.2 34.6 24.6 68 4.6 N 15 17 8 9 1004.5 1004.5 0.0
30/04:30pm 31.4 35.0 24.3 66 5.0 N 13 15 7 8 1004.6 1004.6 0.0
30/04:00pm 31.4 35.1 24.5 67 4.8 N 13 17 7 9 1004.5 1004.5 0.0

Other formats

Comma delimited format used in spreadsheet applications
http://www.bom.gov.au/fwo/IDD60801/IDD60801.94135.axf

JavaScript Object Notation format (JSON) in row-major order
http://www.bom.gov.au/fwo/IDD60801/IDD60801.94135.json

Data quality

Most of these data are generated automatically and are frequently updated. Quality checks on data are not normally performed. It is possible for incorrect values to appear. Refer to information at About Latest Weather Observations and please check the disclaimer before using these data.